createdAt,value
2019-03-06T21:35:13.784Z,99770.28
2019-03-06T21:36:14.026Z,99770.06
2019-03-06T21:37:13.976Z,99770.45
2019-03-06T21:38:15.861Z,99770.11
2019-03-06T21:39:18.091Z,99770.69
2019-03-06T21:40:15.991Z,99770.69
2019-03-06T21:41:17.615Z,99770.86
2019-03-06T21:42:18.276Z,99771.03
2019-03-06T21:43:17.989Z,99770.95
2019-03-06T21:44:18.062Z,99770.78
2019-03-06T21:45:19.874Z,99770.91
2019-03-06T21:46:20.025Z,99770.73
2019-03-06T21:47:20.756Z,99769.81
2019-03-06T21:48:20.474Z,99769.31
2019-03-06T21:49:22.363Z,99768.80
2019-03-06T21:50:21.375Z,99768.47
2019-03-06T21:51:23.044Z,99768.38
2019-03-06T21:52:23.809Z,99767.79
2019-03-06T21:53:23.478Z,99767.70
2019-03-06T21:54:25.244Z,99767.53
2019-03-06T21:55:24.923Z,99767.23
2019-03-06T21:56:25.645Z,99766.39
2019-03-06T21:57:26.380Z,99766.13
2019-03-06T21:58:29.632Z,99765.53
2019-03-06T21:59:27.905Z,99764.97
2019-03-06T22:00:28.536Z,99763.55
2019-03-06T22:01:29.158Z,99762.79
2019-03-06T22:02:30.729Z,99762.01
2019-03-06T22:03:30.617Z,99761.03
2019-03-06T22:04:33.278Z,99760.22
2019-03-06T22:05:31.773Z,99759.57
2019-03-06T22:06:32.351Z,99758.88
2019-03-06T22:07:32.986Z,99757.59
2019-03-06T22:08:34.628Z,99756.55
2019-03-06T22:09:36.097Z,99756.86
2019-03-06T22:10:34.915Z,99756.20
2019-03-06T22:11:36.665Z,99756.05
2019-03-06T22:12:37.524Z,99755.52
2019-03-06T22:13:36.746Z,99755.37
2019-03-06T22:14:38.532Z,99754.66
2019-03-06T22:15:38.458Z,99754.30
2019-03-06T22:16:38.584Z,99753.38
2019-03-06T22:17:39.694Z,99752.08
2019-03-06T22:18:40.659Z,99751.72
2019-03-06T22:19:41.313Z,99750.63
2019-03-06T22:20:41.352Z,99750.09
2019-03-06T22:21:42.023Z,99749.21
2019-03-06T22:22:41.148Z,99748.16
2019-03-06T22:23:43.024Z,99747.72
2019-03-06T22:24:42.711Z,99747.21
2019-03-06T22:25:44.628Z,99746.52
2019-03-06T22:26:45.297Z,99746.56
2019-03-06T22:27:44.890Z,99745.27
2019-03-06T22:28:46.759Z,99745.03
2019-03-06T22:29:46.251Z,99744.80
2019-03-06T22:30:47.851Z,99744.23
2019-03-06T22:31:46.815Z,99743.93
2019-03-06T22:32:48.529Z,99742.89
2019-03-06T22:33:48.301Z,99742.01
2019-03-06T22:34:52.032Z,99741.39
2019-03-06T22:35:49.187Z,99740.90
2019-03-06T22:36:50.997Z,99740.33
2019-03-06T22:37:51.202Z,99740.27
2019-03-06T22:38:51.168Z,99739.11
2019-03-06T22:39:52.429Z,99737.98
2019-03-06T22:40:53.335Z,99737.33
2019-03-06T22:41:53.778Z,99736.25
2019-03-06T22:42:53.434Z,99735.17
2019-03-06T22:43:54.792Z,99734.28
2019-03-06T22:44:03.337Z,99719.45
2019-03-06T22:45:04.954Z,99719.45
2019-03-06T22:46:04.555Z,99719.37
2019-03-06T22:47:06.323Z,99719.21
2019-03-06T22:48:06.936Z,99719.50
2019-03-06T22:49:06.720Z,99719.77
2019-03-06T22:50:08.427Z,99719.86
2019-03-06T22:51:09.396Z,99719.45
2019-03-06T22:52:10.127Z,99719.06
2019-03-06T22:53:11.065Z,99718.55
2019-03-06T22:54:11.674Z,99717.71
2019-03-06T22:55:12.272Z,99717.20
2019-03-06T22:56:12.731Z,99716.28
2019-03-06T22:57:12.981Z,99715.53
2019-03-06T22:58:12.893Z,99715.23
2019-03-06T22:59:14.444Z,99714.55
2019-03-06T23:00:14.011Z,99713.86
2019-03-06T23:01:15.564Z,99712.94
2019-03-06T23:02:16.199Z,99712.34
2019-03-06T23:03:16.898Z,99711.53
2019-03-06T23:04:17.884Z,99710.89
2019-03-06T23:05:18.482Z,99710.50
2019-03-06T23:06:19.145Z,99709.31
2019-03-06T23:07:18.881Z,99708.34
2019-03-06T23:08:20.561Z,99707.02
2019-03-06T23:09:21.405Z,99706.12
2019-03-06T23:10:22.122Z,99705.34
2019-03-06T23:11:22.133Z,99704.86
2019-03-06T23:12:22.182Z,99704.39
2019-03-06T23:13:23.000Z,99703.20
2019-03-06T23:14:22.731Z,99702.72
2019-03-06T23:15:23.585Z,99701.27
2019-03-06T23:16:24.270Z,99700.78
2019-03-06T23:17:25.508Z,99699.59
2019-03-06T23:18:26.634Z,99698.80
2019-03-06T23:19:25.570Z,99697.45
2019-03-06T23:20:27.219Z,99696.45
2019-03-06T23:21:27.969Z,99695.50
2019-03-06T23:22:28.612Z,99694.04
2019-03-06T23:23:29.413Z,99692.75
2019-03-06T23:24:28.959Z,99691.62
2019-03-06T23:25:30.021Z,99690.00
2019-03-06T23:26:30.656Z,99688.96
2019-03-06T23:27:31.265Z,99687.67
2019-03-06T23:28:32.280Z,99686.38
2019-03-06T23:29:32.968Z,99685.09
2019-03-06T23:30:33.548Z,99683.13
2019-03-06T23:31:34.414Z,99681.84
2019-03-06T23:32:35.182Z,99680.80
2019-03-06T23:33:34.785Z,99679.42
2019-03-06T23:34:36.476Z,99677.45
2019-03-06T23:35:37.013Z,99676.24
2019-03-06T23:36:37.370Z,99675.20
2019-03-06T23:36:47.342Z,99654.44
2019-03-06T23:37:49.190Z,99653.72
2019-03-06T23:38:49.319Z,99654.06
2019-03-06T23:39:49.508Z,99652.89
2019-03-06T23:40:50.321Z,99652.89
2019-03-06T23:41:49.910Z,99652.48
2019-03-06T23:42:51.454Z,99651.75
2019-03-06T23:43:51.932Z,99651.68
2019-03-06T23:44:52.472Z,99650.84
2019-03-06T23:45:53.077Z,99650.98
2019-03-06T23:46:53.660Z,99650.50
2019-03-06T23:47:54.223Z,99650.61
2019-03-06T23:48:54.875Z,99650.07
2019-03-06T23:49:55.564Z,99650.13
2019-03-06T23:50:56.137Z,99650.20
2019-03-06T23:51:55.774Z,99649.41
2019-03-06T23:52:57.667Z,99648.49
2019-03-06T23:53:57.283Z,99647.75
2019-03-06T23:54:57.954Z,99646.59
2019-03-06T23:55:59.893Z,99645.14
2019-03-06T23:57:00.568Z,99643.84
2019-03-06T23:57:59.547Z,99643.06
2019-03-06T23:59:00.474Z,99642.11
